sensor_id;sensor_type;location;lat;lon;timestamp;P1;durP1;ratioP1;P2;durP2;ratioP2
15966;SDS011;15175;48.154;11.534;2024-01-06T00:03:20;9.13;;;5.22;;
15966;SDS011;15175;48.154;11.534;2024-01-06T00:09:22;10.88;;;5.13;;
15966;SDS011;15175;48.154;11.534;2024-01-06T00:15:25;10.93;;;6.03;;
15966;SDS011;15175;48.154;11.534;2024-01-06T00:21:28;9.70;;;5.35;;
15966;SDS011;15175;48.154;11.534;2024-01-06T00:27:30;9.88;;;5.82;;
15966;SDS011;15175;48.154;11.534;2024-01-06T00:33:33;9.75;;;5.70;;
15966;SDS011;15175;48.154;11.534;2024-01-06T00:39:35;9.52;;;6.03;;
15966;SDS011;15175;48.154;11.534;2024-01-06T00:45:38;12.35;;;6.80;;
15966;SDS011;15175;48.154;11.534;2024-01-06T00:51:41;11.27;;;5.75;;
15966;SDS011;15175;48.154;11.534;2024-01-06T00:57:43;8.07;;;5.20;;
15966;SDS011;15175;48.154;11.534;2024-01-06T01:03:45;10.40;;;5.57;;
15966;SDS011;15175;48.154;11.534;2024-01-06T01:09:49;8.70;;;5.28;;
15966;SDS011;15175;48.154;11.534;2024-01-06T01:15:51;8.02;;;4.50;;
15966;SDS011;15175;48.154;11.534;2024-01-06T01:21:54;7.72;;;4.78;;
15966;SDS011;15175;48.154;11.534;2024-01-06T01:27:57;7.80;;;4.45;;
15966;SDS011;15175;48.154;11.534;2024-01-06T01:33:59;7.30;;;4.43;;
15966;SDS011;15175;48.154;11.534;2024-01-06T01:40:01;6.03;;;3.58;;
15966;SDS011;15175;48.154;11.534;2024-01-06T01:46:05;5.45;;;2.90;;
15966;SDS011;15175;48.154;11.534;2024-01-06T01:52:08;4.72;;;2.53;;
15966;SDS011;15175;48.154;11.534;2024-01-06T01:58:10;6.45;;;3.70;;
15966;SDS011;15175;48.154;11.534;2024-01-06T02:04:16;5.53;;;3.00;;
15966;SDS011;15175;48.154;11.534;2024-01-06T02:10:18;7.00;;;4.13;;
15966;SDS011;15175;48.154;11.534;2024-01-06T02:16:20;9.32;;;4.93;;
15966;SDS011;15175;48.154;11.534;2024-01-06T02:22:24;9.23;;;5.15;;
15966;SDS011;15175;48.154;11.534;2024-01-06T02:28:26;8.13;;;4.85;;
15966;SDS011;15175;48.154;11.534;2024-01-06T02:34:28;9.52;;;5.40;;
15966;SDS011;15175;48.154;11.534;2024-01-06T02:40:32;7.82;;;4.55;;
15966;SDS011;15175;48.154;11.534;2024-01-06T02:46:34;11.57;;;6.13;;
15966;SDS011;15175;48.154;11.534;2024-01-06T02:52:36;8.45;;;5.20;;
15966;SDS011;15175;48.154;11.534;2024-01-06T02:58:40;10.77;;;6.07;;
15966;SDS011;15175;48.154;11.534;2024-01-06T03:04:42;10.50;;;6.25;;
15966;SDS011;15175;48.154;11.534;2024-01-06T03:10:44;12.30;;;6.03;;
15966;SDS011;15175;48.154;11.534;2024-01-06T03:16:48;7.78;;;4.03;;
15966;SDS011;15175;48.154;11.534;2024-01-06T03:22:50;8.38;;;4.53;;
15966;SDS011;15175;48.154;11.534;2024-01-06T03:28:54;7.28;;;3.83;;
15966;SDS011;15175;48.154;11.534;2024-01-06T03:34:57;7.95;;;4.13;;
15966;SDS011;15175;48.154;11.534;2024-01-06T03:41:00;5.65;;;3.17;;
15966;SDS011;15175;48.154;11.534;2024-01-06T03:47:02;9.15;;;4.93;;
15966;SDS011;15175;48.154;11.534;2024-01-06T03:53:05;8.98;;;4.05;;
15966;SDS011;15175;48.154;11.534;2024-01-06T03:59:08;7.68;;;4.53;;
15966;SDS011;15175;48.154;11.534;2024-01-06T04:05:10;5.90;;;3.70;;
15966;SDS011;15175;48.154;11.534;2024-01-06T04:11:13;5.07;;;2.92;;
15966;SDS011;15175;48.154;11.534;2024-01-06T04:17:16;5.90;;;3.08;;
15966;SDS011;15175;48.154;11.534;2024-01-06T04:23:18;3.63;;;1.67;;
15966;SDS011;15175;48.154;11.534;2024-01-06T04:29:21;3.42;;;1.50;;
15966;SDS011;15175;48.154;11.534;2024-01-06T04:35:25;3.70;;;1.48;;
15966;SDS011;15175;48.154;11.534;2024-01-06T04:47:30;2.92;;;0.90;;
15966;SDS011;15175;48.154;11.534;2024-01-06T04:53:32;2.97;;;0.60;;
15966;SDS011;15175;48.154;11.534;2024-01-06T04:59:35;1.10;;;0.57;;
15966;SDS011;15175;48.154;11.534;2024-01-06T05:05:38;0.82;;;0.30;;
15966;SDS011;15175;48.154;11.534;2024-01-06T05:11:41;1.42;;;0.57;;
15966;SDS011;15175;48.154;11.534;2024-01-06T05:17:45;1.48;;;0.70;;
15966;SDS011;15175;48.154;11.534;2024-01-06T05:23:48;0.75;;;0.47;;
15966;SDS011;15175;48.154;11.534;2024-01-06T05:29:50;0.52;;;0.30;;
15966;SDS011;15175;48.154;11.534;2024-01-06T05:35:52;0.57;;;0.30;;
15966;SDS011;15175;48.154;11.534;2024-01-06T05:41:56;0.85;;;0.30;;
15966;SDS011;15175;48.154;11.534;2024-01-06T05:54:00;1.45;;;0.63;;
15966;SDS011;15175;48.154;11.534;2024-01-06T06:00:06;1.63;;;0.70;;
15966;SDS011;15175;48.154;11.534;2024-01-06T06:06:12;2.78;;;1.08;;
15966;SDS011;15175;48.154;11.534;2024-01-06T06:12:15;2.20;;;0.93;;
15966;SDS011;15175;48.154;11.534;2024-01-06T06:18:18;2.42;;;0.90;;
15966;SDS011;15175;48.154;11.534;2024-01-06T06:24:20;3.60;;;1.20;;
15966;SDS011;15175;48.154;11.534;2024-01-06T06:30:23;4.07;;;1.40;;
15966;SDS011;15175;48.154;11.534;2024-01-06T06:36:27;3.63;;;1.33;;
15966;SDS011;15175;48.154;11.534;2024-01-06T06:42:29;2.95;;;1.45;;
15966;SDS011;15175;48.154;11.534;2024-01-06T06:48:31;3.22;;;1.25;;
15966;SDS011;15175;48.154;11.534;2024-01-06T06:54:37;3.15;;;1.20;;
15966;SDS011;15175;48.154;11.534;2024-01-06T07:00:39;2.22;;;1.20;;
15966;SDS011;15175;48.154;11.534;2024-01-06T07:06:43;5.13;;;1.13;;
15966;SDS011;15175;48.154;11.534;2024-01-06T07:12:46;3.88;;;1.00;;
15966;SDS011;15175;48.154;11.534;2024-01-06T07:24:50;4.55;;;1.10;;
15966;SDS011;15175;48.154;11.534;2024-01-06T07:30:54;4.05;;;1.40;;
15966;SDS011;15175;48.154;11.534;2024-01-06T07:42:58;2.88;;;1.27;;
15966;SDS011;15175;48.154;11.534;2024-01-06T07:49:03;4.90;;;1.77;;
15966;SDS011;15175;48.154;11.534;2024-01-06T07:55:06;6.40;;;1.85;;
15966;SDS011;15175;48.154;11.534;2024-01-06T08:01:08;6.03;;;1.90;;
15966;SDS011;15175;48.154;11.534;2024-01-06T08:07:14;4.38;;;1.70;;
15966;SDS011;15175;48.154;11.534;2024-01-06T08:13:16;4.55;;;1.98;;
15966;SDS011;15175;48.154;11.534;2024-01-06T08:19:18;3.83;;;1.85;;
15966;SDS011;15175;48.154;11.534;2024-01-06T08:25:22;5.53;;;2.05;;
15966;SDS011;15175;48.154;11.534;2024-01-06T08:37:26;7.15;;;1.10;;
15966;SDS011;15175;48.154;11.534;2024-01-06T08:43:30;5.15;;;1.15;;
15966;SDS011;15175;48.154;11.534;2024-01-06T08:55:34;3.20;;;1.05;;
15966;SDS011;15175;48.154;11.534;2024-01-06T09:01:37;2.47;;;1.10;;
15966;SDS011;15175;48.154;11.534;2024-01-06T09:13:41;5.88;;;1.40;;
15966;SDS011;15175;48.154;11.534;2024-01-06T09:19:45;3.72;;;1.30;;
15966;SDS011;15175;48.154;11.534;2024-01-06T09:25:48;2.75;;;1.30;;
15966;SDS011;15175;48.154;11.534;2024-01-06T09:31:52;7.00;;;1.52;;
15966;SDS011;15175;48.154;11.534;2024-01-06T09:37:55;5.25;;;1.20;;
15966;SDS011;15175;48.154;11.534;2024-01-06T09:50:00;4.72;;;1.67;;
15966;SDS011;15175;48.154;11.534;2024-01-06T09:56:07;3.58;;;1.30;;
15966;SDS011;15175;48.154;11.534;2024-01-06T10:02:09;3.38;;;1.50;;
15966;SDS011;15175;48.154;11.534;2024-01-06T10:08:15;3.60;;;1.50;;
15966;SDS011;15175;48.154;11.534;2024-01-06T10:14:21;4.72;;;2.00;;
15966;SDS011;15175;48.154;11.534;2024-01-06T10:26:26;4.78;;;1.92;;
15966;SDS011;15175;48.154;11.534;2024-01-06T10:32:31;10.43;;;2.25;;
15966;SDS011;15175;48.154;11.534;2024-01-06T10:38:34;6.30;;;1.80;;
15966;SDS011;15175;48.154;11.534;2024-01-06T10:44:37;6.80;;;2.10;;
15966;SDS011;15175;48.154;11.534;2024-01-06T10:50:43;9.70;;;2.03;;
15966;SDS011;15175;48.154;11.534;2024-01-06T10:56:46;6.88;;;2.00;;
15966;SDS011;15175;48.154;11.534;2024-01-06T11:02:50;6.85;;;1.98;;
15966;SDS011;15175;48.154;11.534;2024-01-06T11:08:57;5.65;;;2.13;;
15966;SDS011;15175;48.154;11.534;2024-01-06T11:15:06;10.13;;;2.78;;
15966;SDS011;15175;48.154;11.534;2024-01-06T11:21:15;6.93;;;2.75;;
15966;SDS011;15175;48.154;11.534;2024-01-06T11:27:20;7.75;;;2.75;;
15966;SDS011;15175;48.154;11.534;2024-01-06T11:33:26;9.25;;;2.80;;
15966;SDS011;15175;48.154;11.534;2024-01-06T11:39:35;5.18;;;2.15;;
15966;SDS011;15175;48.154;11.534;2024-01-06T11:45:40;9.13;;;2.65;;
15966;SDS011;15175;48.154;11.534;2024-01-06T11:51:43;5.97;;;2.70;;
15966;SDS011;15175;48.154;11.534;2024-01-06T11:57:45;7.15;;;2.85;;
15966;SDS011;15175;48.154;11.534;2024-01-06T12:03:54;8.90;;;3.50;;
15966;SDS011;15175;48.154;11.534;2024-01-06T12:10:00;5.88;;;2.60;;
15966;SDS011;15175;48.154;11.534;2024-01-06T12:16:03;7.93;;;3.28;;
15966;SDS011;15175;48.154;11.534;2024-01-06T12:28:11;8.35;;;3.63;;
15966;SDS011;15175;48.154;11.534;2024-01-06T12:34:16;8.27;;;2.75;;
15966;SDS011;15175;48.154;11.534;2024-01-06T12:40:20;7.97;;;3.13;;
15966;SDS011;15175;48.154;11.534;2024-01-06T12:46:23;9.20;;;3.58;;
15966;SDS011;15175;48.154;11.534;2024-01-06T12:52:25;8.73;;;3.03;;
15966;SDS011;15175;48.154;11.534;2024-01-06T12:58:28;7.18;;;2.40;;
15966;SDS011;15175;48.154;11.534;2024-01-06T13:10:32;6.22;;;2.28;;
15966;SDS011;15175;48.154;11.534;2024-01-06T13:16:37;9.50;;;2.33;;
15966;SDS011;15175;48.154;11.534;2024-01-06T13:28:42;3.40;;;1.75;;
15966;SDS011;15175;48.154;11.534;2024-01-06T13:34:45;5.78;;;2.53;;
15966;SDS011;15175;48.154;11.534;2024-01-06T13:40:47;28.05;;;10.32;;
15966;SDS011;15175;48.154;11.534;2024-01-06T13:46:50;63.78;;;27.80;;
15966;SDS011;15175;48.154;11.534;2024-01-06T13:52:55;50.88;;;20.42;;
15966;SDS011;15175;48.154;11.534;2024-01-06T14:04:59;26.30;;;13.15;;
15966;SDS011;15175;48.154;11.534;2024-01-06T14:11:03;35.83;;;14.85;;
15966;SDS011;15175;48.154;11.534;2024-01-06T14:17:06;94.95;;;41.78;;
15966;SDS011;15175;48.154;11.534;2024-01-06T14:23:08;28.85;;;13.27;;
15966;SDS011;15175;48.154;11.534;2024-01-06T14:29:12;8.50;;;3.00;;
15966;SDS011;15175;48.154;11.534;2024-01-06T14:35:16;5.60;;;3.25;;
15966;SDS011;15175;48.154;11.534;2024-01-06T14:41:18;35.05;;;18.15;;
15966;SDS011;15175;48.154;11.534;2024-01-06T14:47:22;35.10;;;15.57;;
15966;SDS011;15175;48.154;11.534;2024-01-06T14:59:26;6.40;;;3.38;;
15966;SDS011;15175;48.154;11.534;2024-01-06T15:05:30;5.47;;;2.58;;
15966;SDS011;15175;48.154;11.534;2024-01-06T15:17:34;6.68;;;2.72;;
15966;SDS011;15175;48.154;11.534;2024-01-06T15:23:38;6.13;;;2.97;;
15966;SDS011;15175;48.154;11.534;2024-01-06T15:29:41;7.13;;;3.15;;
15966;SDS011;15175;48.154;11.534;2024-01-06T15:35:44;7.13;;;3.22;;
15966;SDS011;15175;48.154;11.534;2024-01-06T15:41:47;9.13;;;4.00;;
15966;SDS011;15175;48.154;11.534;2024-01-06T15:47:51;7.18;;;3.70;;
15966;SDS011;15175;48.154;11.534;2024-01-06T15:53:53;6.35;;;2.90;;
15966;SDS011;15175;48.154;11.534;2024-01-06T15:59:57;6.28;;;3.58;;
15966;SDS011;15175;48.154;11.534;2024-01-06T16:05:59;8.20;;;3.95;;
15966;SDS011;15175;48.154;11.534;2024-01-06T16:12:02;5.95;;;3.10;;
15966;SDS011;15175;48.154;11.534;2024-01-06T16:18:07;7.80;;;3.50;;
15966;SDS011;15175;48.154;11.534;2024-01-06T16:24:09;7.95;;;4.05;;
15966;SDS011;15175;48.154;11.534;2024-01-06T16:30:12;9.82;;;3.78;;
15966;SDS011;15175;48.154;11.534;2024-01-06T16:36:16;8.73;;;4.13;;
15966;SDS011;15175;48.154;11.534;2024-01-06T16:42:18;7.15;;;4.25;;
15966;SDS011;15175;48.154;11.534;2024-01-06T16:48:21;6.82;;;3.60;;
15966;SDS011;15175;48.154;11.534;2024-01-06T16:54:25;9.57;;;4.30;;
15966;SDS011;15175;48.154;11.534;2024-01-06T17:00:27;8.73;;;3.97;;
15966;SDS011;15175;48.154;11.534;2024-01-06T17:06:29;8.13;;;4.07;;
15966;SDS011;15175;48.154;11.534;2024-01-06T17:12:33;6.90;;;4.03;;
15966;SDS011;15175;48.154;11.534;2024-01-06T17:24:37;10.25;;;5.15;;
15966;SDS011;15175;48.154;11.534;2024-01-06T17:30:41;8.88;;;4.35;;
15966;SDS011;15175;48.154;11.534;2024-01-06T17:48:48;12.77;;;7.28;;
15966;SDS011;15175;48.154;11.534;2024-01-06T17:54:50;12.95;;;7.30;;
15966;SDS011;15175;48.154;11.534;2024-01-06T18:00:53;14.30;;;7.75;;
15966;SDS011;15175;48.154;11.534;2024-01-06T18:06:57;13.40;;;8.07;;
15966;SDS011;15175;48.154;11.534;2024-01-06T18:12:59;14.85;;;8.55;;
15966;SDS011;15175;48.154;11.534;2024-01-06T18:19:01;13.02;;;7.07;;
15966;SDS011;15175;48.154;11.534;2024-01-06T18:25:05;19.35;;;8.90;;
15966;SDS011;15175;48.154;11.534;2024-01-06T18:31:08;17.02;;;9.15;;
15966;SDS011;15175;48.154;11.534;2024-01-06T18:37:10;17.35;;;9.63;;
15966;SDS011;15175;48.154;11.534;2024-01-06T18:43:14;17.05;;;8.77;;
15966;SDS011;15175;48.154;11.534;2024-01-06T18:49:17;17.35;;;8.55;;
15966;SDS011;15175;48.154;11.534;2024-01-06T18:55:20;16.10;;;9.88;;
15966;SDS011;15175;48.154;11.534;2024-01-06T19:01:23;18.15;;;8.80;;
15966;SDS011;15175;48.154;11.534;2024-01-06T19:07:26;16.45;;;9.45;;
15966;SDS011;15175;48.154;11.534;2024-01-06T19:13:29;17.95;;;9.38;;
15966;SDS011;15175;48.154;11.534;2024-01-06T19:19:32;17.48;;;8.52;;
15966;SDS011;15175;48.154;11.534;2024-01-06T19:25:39;17.85;;;9.70;;
15966;SDS011;15175;48.154;11.534;2024-01-06T19:31:43;16.50;;;9.05;;
15966;SDS011;15175;48.154;11.534;2024-01-06T19:37:46;15.75;;;8.20;;
15966;SDS011;15175;48.154;11.534;2024-01-06T19:43:49;17.30;;;9.60;;
15966;SDS011;15175;48.154;11.534;2024-01-06T19:49:51;16.45;;;9.35;;
15966;SDS011;15175;48.154;11.534;2024-01-06T19:55:54;17.40;;;9.65;;
15966;SDS011;15175;48.154;11.534;2024-01-06T20:01:57;16.90;;;8.88;;
15966;SDS011;15175;48.154;11.534;2024-01-06T20:07:59;20.10;;;9.68;;
15966;SDS011;15175;48.154;11.534;2024-01-06T20:14:02;15.93;;;8.15;;
15966;SDS011;15175;48.154;11.534;2024-01-06T20:20:05;20.05;;;9.23;;
15966;SDS011;15175;48.154;11.534;2024-01-06T20:26:09;16.80;;;9.43;;
15966;SDS011;15175;48.154;11.534;2024-01-06T20:32:14;16.27;;;8.52;;
15966;SDS011;15175;48.154;11.534;2024-01-06T20:38:17;17.33;;;8.68;;
15966;SDS011;15175;48.154;11.534;2024-01-06T20:44:19;16.90;;;8.95;;
15966;SDS011;15175;48.154;11.534;2024-01-06T20:50:22;16.85;;;8.63;;
15966;SDS011;15175;48.154;11.534;2024-01-06T20:56:25;16.98;;;8.45;;
15966;SDS011;15175;48.154;11.534;2024-01-06T21:02:27;17.73;;;9.52;;
15966;SDS011;15175;48.154;11.534;2024-01-06T21:08:31;16.40;;;9.00;;
15966;SDS011;15175;48.154;11.534;2024-01-06T21:14:33;18.40;;;9.52;;
15966;SDS011;15175;48.154;11.534;2024-01-06T21:20:38;16.95;;;8.60;;
15966;SDS011;15175;48.154;11.534;2024-01-06T21:26:42;17.83;;;9.07;;
15966;SDS011;15175;48.154;11.534;2024-01-06T21:32:44;15.63;;;9.18;;
15966;SDS011;15175;48.154;11.534;2024-01-06T21:38:47;15.65;;;8.63;;
15966;SDS011;15175;48.154;11.534;2024-01-06T21:44:50;17.35;;;8.52;;
15966;SDS011;15175;48.154;11.534;2024-01-06T21:50:54;14.73;;;7.68;;
15966;SDS011;15175;48.154;11.534;2024-01-06T21:56:56;16.13;;;8.73;;
15966;SDS011;15175;48.154;11.534;2024-01-06T22:03:00;15.35;;;8.05;;
15966;SDS011;15175;48.154;11.534;2024-01-06T22:09:03;14.15;;;7.28;;
15966;SDS011;15175;48.154;11.534;2024-01-06T22:15:06;14.95;;;7.47;;
15966;SDS011;15175;48.154;11.534;2024-01-06T22:21:10;15.05;;;7.40;;
15966;SDS011;15175;48.154;11.534;2024-01-06T22:33:15;12.90;;;7.28;;
15966;SDS011;15175;48.154;11.534;2024-01-06T22:39:19;17.77;;;7.85;;
15966;SDS011;15175;48.154;11.534;2024-01-06T22:45:25;16.52;;;8.60;;
15966;SDS011;15175;48.154;11.534;2024-01-06T22:51:28;13.93;;;7.65;;
15966;SDS011;15175;48.154;11.534;2024-01-06T22:57:32;13.55;;;7.38;;
15966;SDS011;15175;48.154;11.534;2024-01-06T23:03:37;14.60;;;7.30;;
15966;SDS011;15175;48.154;11.534;2024-01-06T23:09:39;14.07;;;7.72;;
15966;SDS011;15175;48.154;11.534;2024-01-06T23:15:42;16.15;;;8.18;;
15966;SDS011;15175;48.154;11.534;2024-01-06T23:21:45;13.48;;;6.82;;
15966;SDS011;15175;48.154;11.534;2024-01-06T23:27:47;13.00;;;7.13;;
15966;SDS011;15175;48.154;11.534;2024-01-06T23:33:51;13.70;;;7.22;;
15966;SDS011;15175;48.154;11.534;2024-01-06T23:39:53;15.05;;;7.85;;
15966;SDS011;15175;48.154;11.534;2024-01-06T23:45:55;13.50;;;6.95;;
15966;SDS011;15175;48.154;11.534;2024-01-06T23:52:00;14.73;;;7.40;;
15966;SDS011;15175;48.154;11.534;2024-01-06T23:58:03;13.25;;;6.68;;
